createdAt,value
2019-04-04T00:01:18.606Z,98991.72
2019-04-04T00:03:47.183Z,99011.94
2019-04-04T00:06:15.754Z,99015.20
2019-04-04T00:08:44.351Z,99007.01
2019-04-04T00:11:13.008Z,98990.34
2019-04-04T00:13:42.067Z,98975.02
2019-04-04T00:16:11.171Z,98975.50
2019-04-04T00:18:39.778Z,98998.59
2019-04-04T00:21:08.371Z,98996.78
2019-04-04T00:23:38.053Z,98991.67
2019-04-04T00:26:07.119Z,98980.55
2019-04-04T00:28:35.697Z,98961.30
2019-04-04T00:31:04.353Z,98958.36
2019-04-04T00:33:33.022Z,98960.05
2019-04-04T00:36:02.677Z,98963.89
2019-04-04T00:38:31.878Z,98966.92
2019-04-04T00:41:00.459Z,98986.03
2019-04-04T00:43:29.051Z,98984.70
2019-04-04T00:46:00.480Z,98997.86
2019-04-04T00:48:27.952Z,98996.05
2019-04-04T00:50:56.694Z,98988.91
2019-04-04T00:53:25.319Z,98982.52
2019-04-04T00:55:53.922Z,98968.04
2019-04-04T00:58:22.574Z,98965.65
2019-04-04T01:00:51.147Z,98978.52
2019-04-04T01:03:19.720Z,98973.11
2019-04-04T01:05:48.460Z,98951.77
2019-04-04T01:08:17.194Z,98942.00
2019-04-04T01:10:45.982Z,98954.75
2019-04-04T01:13:14.592Z,98965.77
2019-04-04T01:15:43.231Z,98962.05
2019-04-04T01:18:11.831Z,98958.69
2019-04-04T01:20:40.506Z,98959.59
2019-04-04T01:23:09.078Z,98960.79
2019-04-04T01:25:37.763Z,98960.72
2019-04-04T01:28:08.169Z,98961.14
2019-04-04T01:30:36.654Z,98960.55
2019-04-04T01:33:05.269Z,98970.75
2019-04-04T01:35:34.544Z,98981.77
2019-04-04T01:38:03.268Z,98972.87
2019-04-04T01:40:33.673Z,98977.48
2019-04-04T01:43:02.594Z,98978.45
2019-04-04T01:45:31.165Z,98969.98
2019-04-04T01:47:59.739Z,98960.91
2019-04-04T01:50:28.390Z,98951.60
2019-04-04T01:52:59.286Z,98948.58
2019-04-04T01:55:27.424Z,98939.69
2019-04-04T01:57:55.997Z,98941.06
2019-04-04T02:00:24.570Z,98941.25
2019-04-04T02:02:53.335Z,98929.45
2019-04-04T02:05:22.133Z,98927.23
2019-04-04T02:07:50.840Z,98908.09
2019-04-04T02:10:19.429Z,98916.51
2019-04-04T02:12:48.001Z,98901.49
2019-04-04T02:15:16.586Z,98910.37
2019-04-04T02:17:45.155Z,98911.14
2019-04-04T02:20:13.725Z,98914.22
2019-04-04T02:22:42.301Z,98909.66
2019-04-04T02:25:10.871Z,98897.53
2019-04-04T02:27:39.473Z,98888.03
2019-04-04T02:30:08.739Z,98906.73
2019-04-04T02:32:37.293Z,98906.52
2019-04-04T02:35:10.304Z,98906.06
2019-04-04T02:37:37.576Z,98901.15
2019-04-04T02:40:10.121Z,98894.54
2019-04-04T02:42:39.214Z,98894.78
2019-04-04T02:45:08.576Z,98896.47
2019-04-04T02:47:37.169Z,98881.80
2019-04-04T02:50:07.044Z,98872.28
2019-04-04T02:52:35.638Z,98877.22
2019-04-04T02:55:05.153Z,98877.59
2019-04-04T02:57:33.765Z,98878.30
2019-04-04T03:00:02.361Z,98892.62
2019-04-04T03:02:30.935Z,98884.80
2019-04-04T03:04:59.503Z,98865.63
2019-04-04T03:07:30.994Z,98853.70
2019-04-04T03:09:59.160Z,98859.33
2019-04-04T03:12:27.752Z,98888.16
2019-04-04T03:14:56.329Z,98881.16
2019-04-04T03:17:24.911Z,98898.39
2019-04-04T03:19:53.521Z,98906.34
2019-04-04T03:22:24.630Z,98928.88
2019-04-04T03:24:52.927Z,98920.59
2019-04-04T03:27:25.813Z,98920.22
2019-04-04T03:29:51.893Z,98925.52
2019-04-04T03:32:20.571Z,98927.80
2019-04-04T03:34:51.076Z,98943.46
2019-04-04T03:37:19.509Z,98926.83
2019-04-04T03:39:51.970Z,98914.52
2019-04-04T03:42:18.449Z,98894.38
2019-04-04T03:44:47.059Z,98886.17
2019-04-04T03:47:15.639Z,98878.93
2019-04-04T03:49:44.249Z,98878.68
2019-04-04T03:52:12.855Z,98889.29
2019-04-04T03:54:41.490Z,98877.36
2019-04-04T03:57:12.174Z,98883.64
2019-04-04T03:59:40.374Z,98894.36
2019-04-04T04:02:08.956Z,98906.69
2019-04-04T04:04:37.581Z,98896.08
2019-04-04T04:07:06.130Z,98885.24
2019-04-04T04:09:34.937Z,98904.28
2019-04-04T04:12:03.597Z,98918.39
2019-04-04T04:14:32.176Z,98919.23
2019-04-04T04:17:00.747Z,98899.34
2019-04-04T04:19:31.017Z,98886.56
2019-04-04T04:21:59.629Z,98892.22
2019-04-04T04:24:29.796Z,98900.09
2019-04-04T04:26:58.543Z,98897.33
2019-04-04T04:29:29.936Z,98897.33
2019-04-04T04:31:58.039Z,98883.13
2019-04-04T04:34:26.573Z,98879.39
2019-04-04T04:36:55.152Z,98890.59
2019-04-04T04:39:23.718Z,98884.67
2019-04-04T04:41:54.240Z,98884.80
2019-04-04T04:44:22.976Z,98882.86
2019-04-04T04:46:51.599Z,98878.73
2019-04-04T04:49:23.306Z,98876.31
2019-04-04T04:51:50.710Z,98863.43
2019-04-04T04:54:20.456Z,98856.78
2019-04-04T04:56:49.666Z,98858.20
2019-04-04T04:59:18.257Z,98850.13
2019-04-04T05:01:50.242Z,98847.84
2019-04-04T05:04:17.272Z,98843.25
2019-04-04T05:06:45.728Z,98843.95
2019-04-04T05:09:14.710Z,98848.30
2019-04-04T05:11:43.385Z,98865.40
2019-04-04T05:14:11.958Z,98859.84
2019-04-04T05:16:40.542Z,98843.53
2019-04-04T05:19:09.091Z,98845.34
2019-04-04T05:21:37.686Z,98871.33
2019-04-04T05:24:06.272Z,98859.88
2019-04-04T05:26:35.537Z,98860.33
2019-04-04T05:29:05.196Z,98867.41
2019-04-04T05:31:33.932Z,98874.48
2019-04-04T05:34:02.496Z,98874.09
2019-04-04T05:36:31.293Z,98880.69
2019-04-04T05:39:00.172Z,98894.44
2019-04-04T05:41:28.981Z,98885.27
2019-04-04T05:43:57.567Z,98894.27
2019-04-04T05:46:26.471Z,98895.67
2019-04-04T05:48:55.063Z,98903.27
2019-04-04T05:51:23.651Z,98919.90
2019-04-04T05:53:52.235Z,98927.13
2019-04-04T05:56:23.930Z,98922.89
2019-04-04T05:58:53.050Z,98924.30
2019-04-04T06:01:22.820Z,98920.90
2019-04-04T06:03:51.657Z,98922.67
2019-04-04T06:06:20.218Z,98918.64
2019-04-04T06:08:49.074Z,98907.39
2019-04-04T06:11:20.892Z,98897.72
2019-04-04T06:13:48.252Z,98893.09
2019-04-04T06:16:16.828Z,98888.70
2019-04-04T06:18:45.401Z,98883.13
2019-04-04T06:21:13.997Z,98883.13
2019-04-04T06:23:42.575Z,98880.64
2019-04-04T06:26:11.153Z,98898.64
2019-04-04T06:28:39.733Z,98900.19
2019-04-04T06:31:08.301Z,98904.61
2019-04-04T06:33:37.213Z,98913.16
2019-04-04T06:36:05.783Z,98925.67
2019-04-04T06:38:34.360Z,98932.42
2019-04-04T06:41:03.060Z,98945.30
2019-04-04T06:43:32.068Z,98951.31
2019-04-04T06:46:00.649Z,98948.06
2019-04-04T06:48:30.754Z,98954.77
2019-04-04T06:50:59.533Z,98958.50
2019-04-04T06:53:29.018Z,98963.43
2019-04-04T06:55:59.977Z,98958.84
2019-04-04T06:58:27.892Z,98962.20
2019-04-04T07:00:56.468Z,98963.27
2019-04-04T07:03:27.077Z,98961.19
2019-04-04T07:05:55.357Z,98964.27
2019-04-04T07:08:24.035Z,98965.66
2019-04-04T07:10:58.084Z,98960.56
2019-04-04T07:13:27.102Z,98968.64
2019-04-04T07:16:06.293Z,98963.89
2019-04-04T07:18:23.857Z,98966.83
2019-04-04T07:20:52.446Z,98966.44
2019-04-04T07:23:21.023Z,98962.14
2019-04-04T07:25:49.637Z,98964.34
2019-04-04T07:28:19.097Z,98951.61
2019-04-04T07:30:48.212Z,98955.02
2019-04-04T07:33:16.842Z,98948.30
2019-04-04T07:35:46.910Z,98950.36
2019-04-04T07:38:15.753Z,98953.56
2019-04-04T07:40:44.324Z,98955.73
2019-04-04T07:43:12.900Z,98946.78
2019-04-04T07:45:41.471Z,98956.95
2019-04-04T07:48:12.235Z,98961.76
2019-04-04T07:50:40.653Z,98956.80
2019-04-04T07:53:09.282Z,98962.33
2019-04-04T07:55:38.061Z,98967.86
2019-04-04T07:58:06.651Z,98974.39
2019-04-04T08:00:35.228Z,98967.95
2019-04-04T08:03:03.851Z,98966.67
2019-04-04T08:05:32.461Z,98973.62
2019-04-04T08:08:01.081Z,98977.18
2019-04-04T08:10:29.750Z,98972.27
2019-04-04T08:12:58.600Z,98988.54
2019-04-04T08:15:27.172Z,98996.58
2019-04-04T08:17:55.707Z,98987.91
2019-04-04T08:20:24.299Z,98986.21
2019-04-04T08:22:53.203Z,98996.84
2019-04-04T08:25:21.974Z,98993.33
2019-04-04T08:27:50.581Z,98996.36
2019-04-04T08:30:19.221Z,98994.72
2019-04-04T08:32:47.832Z,98995.03
2019-04-04T08:35:16.499Z,99002.17
2019-04-04T08:37:45.082Z,98999.90
2019-04-04T08:40:13.956Z,99001.63
2019-04-04T08:42:42.582Z,99003.32
2019-04-04T08:45:11.356Z,99004.98
2019-04-04T08:47:39.932Z,99000.84
2019-04-04T08:50:08.655Z,98999.16
2019-04-04T08:52:37.229Z,98991.44
2019-04-04T08:55:07.210Z,98990.40
2019-04-04T08:57:35.789Z,98979.73
2019-04-04T09:00:06.741Z,98974.26
2019-04-04T09:02:35.334Z,98993.49
2019-04-04T09:05:12.267Z,99011.36
2019-04-04T09:07:36.468Z,99010.87
2019-04-04T09:10:06.958Z,99007.23
2019-04-04T09:12:35.552Z,99011.92
2019-04-04T09:15:06.121Z,99018.59
2019-04-04T09:17:34.692Z,99015.72
2019-04-04T09:20:04.969Z,99018.03
2019-04-04T09:22:33.571Z,99017.84
2019-04-04T09:25:02.146Z,99023.95
2019-04-04T09:27:30.724Z,99024.11
2019-04-04T09:29:59.385Z,99011.42
2019-04-04T09:32:27.985Z,99014.41
2019-04-04T09:34:56.602Z,99022.12
2019-04-04T09:37:25.183Z,99022.61
2019-04-04T09:39:54.025Z,99020.11
2019-04-04T09:42:22.608Z,99020.75
2019-04-04T09:44:51.348Z,99030.19
2019-04-04T09:47:19.933Z,99030.19
2019-04-04T09:49:48.499Z,99027.93
2019-04-04T09:52:18.193Z,99020.86
2019-04-04T09:54:46.761Z,99015.89
2019-04-04T09:57:15.366Z,99005.50
2019-04-04T09:59:43.963Z,99014.84
2019-04-04T10:02:12.539Z,99010.36
2019-04-04T10:04:41.191Z,99002.48
2019-04-04T10:07:09.765Z,99017.02
2019-04-04T10:09:38.341Z,99016.53
2019-04-04T10:12:06.920Z,99019.89
2019-04-04T10:14:35.494Z,99015.53
2019-04-04T10:17:04.303Z,99018.77
2019-04-04T10:19:32.886Z,99017.44
2019-04-04T10:22:01.547Z,99029.52
2019-04-04T10:24:30.130Z,99032.13
2019-04-04T10:26:58.846Z,99037.91
2019-04-04T10:29:27.431Z,99034.78
2019-04-04T10:31:56.012Z,99016.95
2019-04-04T10:34:24.580Z,99024.19
2019-04-04T10:36:53.165Z,99019.63
2019-04-04T10:39:28.638Z,99018.61
2019-04-04T10:41:52.259Z,99022.04
2019-04-04T10:44:20.881Z,99039.58
2019-04-04T10:46:49.448Z,99041.64
2019-04-04T10:49:18.071Z,99040.83
2019-04-04T10:51:46.645Z,99029.66
2019-04-04T10:54:15.222Z,99025.30
2019-04-04T10:56:43.814Z,99030.11
2019-04-04T10:59:12.388Z,99025.84
2019-04-04T11:01:40.968Z,99017.80
2019-04-04T11:04:09.576Z,99022.22
2019-04-04T11:06:38.150Z,99015.42
2019-04-04T11:09:07.861Z,99011.75
2019-04-04T11:11:36.437Z,99018.41
2019-04-04T11:14:05.115Z,99016.88
2019-04-04T11:16:33.716Z,99007.74
2019-04-04T11:19:02.284Z,99015.53
2019-04-04T11:21:30.907Z,99024.77
2019-04-04T11:23:59.647Z,99032.30
2019-04-04T11:26:28.275Z,99031.28
2019-04-04T11:28:56.848Z,99030.64
2019-04-04T11:31:25.570Z,99022.72
2019-04-04T11:33:54.154Z,99026.20
2019-04-04T11:36:22.797Z,99039.34
2019-04-04T11:38:51.497Z,99054.80
2019-04-04T11:41:20.296Z,99055.37
2019-04-04T11:43:48.860Z,99056.67
2019-04-04T11:46:17.465Z,99050.73
2019-04-04T11:48:46.068Z,99042.61
2019-04-04T11:51:14.647Z,99037.48
2019-04-04T11:53:43.216Z,99039.83
2019-04-04T11:56:11.818Z,99045.77
2019-04-04T11:58:40.409Z,99062.28
2019-04-04T12:01:10.625Z,99066.13
2019-04-04T12:03:39.265Z,99072.80
2019-04-04T12:06:07.940Z,99085.56
2019-04-04T12:08:36.507Z,99088.64
2019-04-04T12:11:05.196Z,99087.88
2019-04-04T12:13:33.771Z,99093.00
2019-04-04T12:16:02.396Z,99093.69
2019-04-04T12:18:30.966Z,99101.98
2019-04-04T12:20:59.710Z,99094.34
2019-04-04T12:23:28.215Z,99087.15
2019-04-04T12:25:56.756Z,99086.30
2019-04-04T12:28:25.331Z,99095.47
2019-04-04T12:30:54.066Z,99096.84
2019-04-04T12:33:22.812Z,99101.15
2019-04-04T12:35:52.547Z,99103.67
2019-04-04T12:38:21.262Z,99104.75
2019-04-04T12:40:49.855Z,99102.48
2019-04-04T12:43:18.419Z,99108.54
2019-04-04T12:45:47.030Z,99099.81
2019-04-04T12:48:15.750Z,99095.08
2019-04-04T12:50:44.317Z,99094.56
2019-04-04T12:53:12.884Z,99103.78
2019-04-04T12:55:41.457Z,99095.17
2019-04-04T12:58:10.997Z,99095.17
2019-04-04T13:00:39.673Z,99089.61
2019-04-04T13:03:08.272Z,99096.51
2019-04-04T13:05:36.843Z,99092.15
2019-04-04T13:08:05.488Z,99072.58
2019-04-04T13:10:34.056Z,99072.58
2019-04-04T13:13:02.624Z,99067.89
2019-04-04T13:15:31.184Z,99066.00
2019-04-04T13:17:59.926Z,99061.92
2019-04-04T13:20:28.491Z,99068.00
2019-04-04T13:22:57.055Z,99065.59
2019-04-04T13:25:25.637Z,99058.74
2019-04-04T13:27:54.204Z,99065.42
2019-04-04T13:30:22.889Z,99055.58
2019-04-04T13:32:51.451Z,99059.20
2019-04-04T13:35:19.972Z,99059.86
2019-04-04T13:37:48.679Z,99065.83
2019-04-04T13:40:17.345Z,99077.81
2019-04-04T13:42:45.981Z,99094.44
2019-04-04T13:45:14.644Z,99109.16
2019-04-04T13:47:43.224Z,99115.55
2019-04-04T13:50:12.821Z,99121.78
2019-04-04T13:52:41.639Z,99119.33
2019-04-04T13:55:10.306Z,99117.85
2019-04-04T13:57:39.509Z,99103.34
2019-04-04T14:00:10.187Z,99100.72
2019-04-04T14:02:38.810Z,99114.15
2019-04-04T14:05:14.165Z,99129.39
2019-04-04T14:07:43.778Z,99128.62
2019-04-04T14:10:11.848Z,99132.42
2019-04-04T14:12:40.707Z,99138.88
2019-04-04T14:15:10.451Z,99145.06
2019-04-04T14:17:39.198Z,99147.25
2019-04-04T14:20:10.687Z,99140.78
2019-04-04T14:22:39.251Z,99152.63
2019-04-04T14:25:08.539Z,99146.33
2019-04-04T14:27:37.410Z,99146.33
2019-04-04T14:30:07.673Z,99135.98
2019-04-04T14:32:36.639Z,99147.37
2019-04-04T14:35:07.382Z,99157.33
2019-04-04T14:37:35.949Z,99162.20
2019-04-04T14:40:06.618Z,99181.00
2019-04-04T14:42:35.220Z,99184.80
2019-04-04T14:45:06.482Z,99189.07
2019-04-04T14:47:35.381Z,99179.53
2019-04-04T14:50:05.596Z,99169.98
2019-04-04T14:52:34.233Z,99162.34
2019-04-04T14:55:02.797Z,99142.39
2019-04-04T14:57:31.458Z,99137.83
2019-04-04T15:00:00.118Z,99129.55
2019-04-04T15:02:28.709Z,99147.66
2019-04-04T15:04:57.294Z,99163.11
2019-04-04T15:07:25.863Z,99162.67
2019-04-04T15:09:54.440Z,99164.20
2019-04-04T15:12:22.944Z,99176.58
2019-04-04T15:14:51.616Z,99195.86
2019-04-04T15:17:20.541Z,99198.35
2019-04-04T15:19:49.121Z,99207.19
2019-04-04T15:22:17.695Z,99224.23
2019-04-04T15:24:46.265Z,99227.48
2019-04-04T15:27:14.943Z,99214.81
2019-04-04T15:29:43.516Z,99225.22
2019-04-04T15:32:12.302Z,99223.67
2019-04-04T15:34:41.010Z,99214.94
2019-04-04T15:37:09.593Z,99217.34
2019-04-04T15:39:38.167Z,99200.73
2019-04-04T15:42:06.831Z,99198.00
2019-04-04T15:44:35.449Z,99185.20
2019-04-04T15:47:04.211Z,99180.59
2019-04-04T15:49:32.779Z,99175.96
2019-04-04T15:52:01.450Z,99186.34
2019-04-04T15:54:30.014Z,99183.45
2019-04-04T15:56:58.581Z,99185.56
2019-04-04T15:59:27.511Z,99198.35
2019-04-04T16:01:56.097Z,99205.71
2019-04-04T16:04:24.672Z,99211.90
2019-04-04T16:06:53.259Z,99212.59
2019-04-04T16:09:21.824Z,99197.86
2019-04-04T16:11:50.411Z,99211.33
2019-04-04T16:14:19.004Z,99224.45
2019-04-04T16:16:47.662Z,99231.41
2019-04-04T16:19:16.358Z,99235.08
2019-04-04T16:21:44.931Z,99225.29
2019-04-04T16:24:13.572Z,99220.75
2019-04-04T16:26:42.135Z,99227.33
2019-04-04T16:29:10.712Z,99238.27
2019-04-04T16:31:39.285Z,99246.55
2019-04-04T16:34:07.859Z,99250.81
2019-04-04T16:36:36.430Z,99262.88
2019-04-04T16:39:07.374Z,99270.88
2019-04-04T16:41:35.948Z,99262.33
2019-04-04T16:44:05.325Z,99257.05
2019-04-04T16:46:33.906Z,99255.51
2019-04-04T16:49:02.480Z,99245.45
2019-04-04T16:51:31.055Z,99242.57
2019-04-04T16:53:59.559Z,99249.72
2019-04-04T16:56:28.144Z,99247.41
2019-04-04T16:58:56.778Z,99249.23
2019-04-04T17:01:25.350Z,99242.94
2019-04-04T17:04:01.526Z,99247.41
2019-04-04T17:06:24.622Z,99257.45
2019-04-04T17:08:53.206Z,99239.15
2019-04-04T17:11:21.775Z,99236.21
2019-04-04T17:13:50.356Z,99225.76
2019-04-04T17:16:21.236Z,99218.34
2019-04-04T17:18:49.256Z,99223.39
2019-04-04T17:21:17.889Z,99245.75
2019-04-04T17:23:46.471Z,99248.73
2019-04-04T17:26:15.029Z,99255.39
2019-04-04T17:28:43.599Z,99266.06
2019-04-04T17:31:12.479Z,99264.00
2019-04-04T17:33:41.578Z,99262.60
2019-04-04T17:36:10.146Z,99274.88
2019-04-04T17:38:38.801Z,99293.80
2019-04-04T17:41:08.113Z,99291.03
2019-04-04T17:43:36.815Z,99289.48
2019-04-04T17:46:05.476Z,99295.94
2019-04-04T17:48:34.629Z,99306.53
2019-04-04T17:51:03.288Z,99310.42
2019-04-04T17:53:31.938Z,99298.96
2019-04-04T17:56:00.849Z,99302.79
2019-04-04T17:58:29.882Z,99300.69
2019-04-04T18:00:58.732Z,99314.53
2019-04-04T18:03:27.305Z,99316.75
2019-04-04T18:05:55.916Z,99323.19
2019-04-04T18:08:24.493Z,99316.28
2019-04-04T18:10:53.138Z,99315.58
2019-04-04T18:13:21.700Z,99324.56
2019-04-04T18:15:50.320Z,99327.82
2019-04-04T18:18:18.907Z,99340.80
2019-04-04T18:20:47.688Z,99348.91
2019-04-04T18:23:16.292Z,99356.05
2019-04-04T18:25:44.875Z,99357.89
2019-04-04T18:28:13.467Z,99338.17
2019-04-04T18:30:42.247Z,99325.59
2019-04-04T18:33:10.830Z,99329.84
2019-04-04T18:35:39.490Z,99343.79
2019-04-04T18:38:08.184Z,99357.36
2019-04-04T18:40:36.779Z,99348.16
2019-04-04T18:43:05.467Z,99364.89
2019-04-04T18:45:34.652Z,99393.21
2019-04-04T18:48:03.681Z,99393.21
2019-04-04T18:50:32.411Z,99377.53
2019-04-04T18:53:01.638Z,99364.33
2019-04-04T18:55:30.366Z,99369.91
2019-04-04T18:57:59.042Z,99377.55
2019-04-04T19:00:27.623Z,99382.98
2019-04-04T19:02:56.195Z,99382.27
2019-04-04T19:05:24.842Z,99385.41
2019-04-04T19:07:53.779Z,99388.70
2019-04-04T19:10:22.900Z,99392.69
2019-04-04T19:12:51.831Z,99377.31
2019-04-04T19:15:20.559Z,99385.44
2019-04-04T19:17:49.533Z,99387.88
2019-04-04T19:20:18.276Z,99380.51
2019-04-04T19:22:47.013Z,99372.77
2019-04-04T19:25:15.787Z,99381.86
2019-04-04T19:27:44.963Z,99389.61
2019-04-04T19:30:15.208Z,99383.55
2019-04-04T19:32:44.110Z,99378.47
2019-04-04T19:35:13.248Z,99382.13
2019-04-04T19:37:42.150Z,99392.06
2019-04-04T19:40:11.466Z,99393.98
2019-04-04T19:42:40.723Z,99405.23
2019-04-04T19:45:09.985Z,99408.86
2019-04-04T19:47:38.874Z,99418.67
2019-04-04T19:50:10.565Z,99419.16
2019-04-04T19:52:39.733Z,99413.47
2019-04-04T19:55:09.539Z,99415.89
2019-04-04T19:57:40.219Z,99417.70
2019-04-04T20:00:11.336Z,99409.48
2019-04-04T20:02:40.439Z,99408.30
2019-04-04T20:05:10.202Z,99418.56
2019-04-04T20:07:39.148Z,99430.16
2019-04-04T20:10:09.316Z,99424.50
2019-04-04T20:12:38.244Z,99422.80
2019-04-04T20:15:08.443Z,99427.41
2019-04-04T20:17:37.448Z,99437.66
2019-04-04T20:20:09.662Z,99439.00
2019-04-04T20:22:40.082Z,99434.16
2019-04-04T20:25:09.140Z,99431.63
2019-04-04T20:27:38.086Z,99427.27
2019-04-04T20:30:14.022Z,99437.91
2019-04-04T20:32:41.564Z,99432.70
2019-04-04T20:35:10.502Z,99417.59
2019-04-04T20:37:39.171Z,99403.84
2019-04-04T20:40:08.302Z,99410.94
2019-04-04T20:42:36.918Z,99421.58
2019-04-04T20:45:06.331Z,99429.19
2019-04-04T20:47:34.937Z,99431.84
2019-04-04T20:50:04.959Z,99424.82
2019-04-04T20:52:33.575Z,99430.89
2019-04-04T20:55:02.366Z,99430.14
2019-04-04T20:57:32.053Z,99427.14
2019-04-04T21:00:00.623Z,99415.79
2019-04-04T21:02:29.232Z,99409.73
2019-04-04T21:04:57.810Z,99415.80
2019-04-04T21:07:26.536Z,99415.19
2019-04-04T21:09:55.307Z,99414.58
2019-04-04T21:12:23.905Z,99408.65
2019-04-04T21:14:52.549Z,99413.25
2019-04-04T21:17:21.363Z,99422.45
2019-04-04T21:19:49.939Z,99427.88
2019-04-04T21:22:27.458Z,99442.73
2019-04-04T21:24:49.419Z,99446.96
2019-04-04T21:27:18.928Z,99446.62
2019-04-04T21:29:47.747Z,99454.22
2019-04-04T21:32:16.373Z,99452.04
2019-04-04T21:34:44.957Z,99458.68
2019-04-04T21:37:13.537Z,99458.82
2019-04-04T21:39:42.481Z,99461.95
2019-04-04T21:42:11.299Z,99453.98
2019-04-04T21:44:39.900Z,99456.64
2019-04-04T21:47:08.956Z,99461.48
2019-04-04T21:49:37.649Z,99459.16
2019-04-04T21:52:06.248Z,99456.50
2019-04-04T21:54:34.824Z,99457.35
2019-04-04T21:57:03.440Z,99459.05
2019-04-04T21:59:32.013Z,99482.37
2019-04-04T22:02:00.675Z,99487.20
2019-04-04T22:04:29.334Z,99486.59
2019-04-04T22:06:58.040Z,99493.01
2019-04-04T22:09:26.718Z,99490.34
2019-04-04T22:11:55.361Z,99488.06
2019-04-04T22:14:23.934Z,99468.23
2019-04-04T22:16:52.508Z,99467.03
2019-04-04T22:19:21.148Z,99473.20
2019-04-04T22:21:49.971Z,99481.52
2019-04-04T22:24:18.577Z,99474.05
2019-04-04T22:26:47.133Z,99483.46
2019-04-04T22:29:15.904Z,99496.28
2019-04-04T22:31:44.548Z,99497.13
2019-04-04T22:34:13.221Z,99483.94
2019-04-04T22:36:41.794Z,99488.30
2019-04-04T22:39:10.635Z,99500.73
2019-04-04T22:41:39.210Z,99517.06
2019-04-04T22:44:07.790Z,99510.90
2019-04-04T22:46:36.389Z,99504.02
2019-04-04T22:49:05.164Z,99503.03
2019-04-04T22:51:33.783Z,99499.42
2019-04-04T22:54:02.360Z,99503.78
2019-04-04T22:56:30.935Z,99501.12
2019-04-04T22:58:59.635Z,99509.09
2019-04-04T23:01:29.233Z,99517.41
2019-04-04T23:03:57.900Z,99515.61
2019-04-04T23:06:26.738Z,99517.79
2019-04-04T23:08:55.332Z,99519.36
2019-04-04T23:11:24.010Z,99517.90
2019-04-04T23:13:52.658Z,99520.93
2019-04-04T23:16:21.263Z,99519.13
2019-04-04T23:18:50.233Z,99513.43
2019-04-04T23:21:18.797Z,99517.08
2019-04-04T23:23:47.494Z,99520.21
2019-04-04T23:26:16.074Z,99521.17
2019-04-04T23:28:44.758Z,99525.16
2019-04-04T23:31:13.334Z,99533.13
2019-04-04T23:33:41.864Z,99537.13
2019-04-04T23:36:10.433Z,99533.61
2019-04-04T23:38:39.025Z,99529.37
2019-04-04T23:41:07.599Z,99525.29
2019-04-04T23:43:36.126Z,99527.58
2019-04-04T23:46:05.700Z,99517.07
2019-04-04T23:48:34.466Z,99525.05
2019-04-04T23:51:03.122Z,99520.82
2019-04-04T23:53:32.117Z,99523.95
2019-04-04T23:56:00.689Z,99530.60
2019-04-04T23:58:29.264Z,99539.91
